Sakaide Maru — 3EYR6 — position and weather

sailwx.info

Track history (hours):
 
Tides and Currents Weather Stations Pressure Air Temp Water Temp Dewpoint Dewpoint Depression Visibility Wind Speed Wind Dir Waves Ship Positions

Sakaide Maru

Last reported at 2018-May-13 23:08 UTC. Time now 2018-May-23 07:17 UTC.
Position N 34°36' E 140°25'.
Warning: this ship's position is 9 days out of date.

Length 255 m; draft 7.4 m.

Type: Ship. MMSI: 354898000.

Date/timePositionNaut miles runAvg speedWind from/ knotsBaromVisibWave heightAir tempDewpointWater temp
2018-May-13 23:08N 34°36' E 140°25'1615.1
2018-May-13 22:04N 34°27' E 140°09'115.0
2018-May-13 21:59N 34°26' E 140°08'1514.1
2018-May-13 20:54N 34°18' E 139°52'815.2
2018-May-13 20:23N 34°15' E 139°43'2114.7
2018-May-13 18:58N 34°08' E 139°19'36512.4
2018-May-12 13:30N 32°59' E 132°09'713.8
2018-May-12 13:00N 33°05' E 132°06'713.7
2018-May-12 12:29N 33°11' E 132°02'510.8
2018-May-12 12:00N 33°15' E 131°58'4 8.5
2018-May-12 11:30N 33°20' E 131°58'611.8
2018-May-12 11:01N 33°25' E 132°02'913.0
2018-May-12 10:21N 33°31' E 132°09'512.8
2018-May-12 09:57N 33°34' E 132°13'612.5
2018-May-12 09:30N 33°38' E 132°18'612.2
2018-May-12 09:00N 33°42' E 132°23'612.8
2018-May-12 08:31N 33°47' E 132°29'712.9
2018-May-12 07:59N 33°52' E 132°34'612.9
2018-May-12 07:30N 33°56' E 132°40'612.7
2018-May-12 07:00N 34°01' E 132°45'713.5
2018-May-12 06:30N 34°06' E 132°50'712.9
2018-May-12 05:59N 34°10' E 132°57'44 8.9
2018-May-12 01:02N 34°23' E 133°48'  
2018-May-08 03:25N 34°27' E 134°04'512.9
2018-May-08 02:59N 34°26' E 134°10'612.0
2018-May-08 02:30N 34°25' E 134°17'611.8
2018-May-08 02:00N 34°26' E 134°24'612.3
2018-May-08 01:30N 34°28' E 134°31'612.4
2018-May-08 01:00N 34°30' E 134°38'612.4
2018-May-08 00:30N 34°32' E 134°45'611.9
2018-May-08 00:00N 34°35' E 134°52'510.8
2018-May-07 23:30N 34°37' E 134°58'4 9.1
2018-May-07 23:00N 34°36' E 135°03'4 8.9
2018-May-07 22:30N 34°34' E 135°08'510.5
2018-May-07 22:00N 34°29' E 135°06'611.7
2018-May-07 21:30N 34°23' E 135°03'611.5
2018-May-07 21:00N 34°18' E 134°60'611.5
2018-May-07 20:30N 34°13' E 134°60'4 7.8
2018-May-07 20:00N 34°09' E 134°59'2 4.8
2018-May-07 19:30N 34°06' E 134°59'3 5.3
2018-May-07 19:00N 34°04' E 134°59'3 5.8
2018-May-07 18:30N 34°01' E 134°58'3 6.5
2018-May-07 18:00N 33°58' E 134°59'3 6.1
2018-May-07 17:30N 33°55' E 134°58'3 6.7
2018-May-07 17:00N 33°51' E 134°58'3 6.1
2018-May-07 16:30N 33°48' E 134°58'3 6.1
2018-May-07 16:00N 33°45' E 134°58'3 6.7
2018-May-07 15:30N 33°42' E 134°59'3 5.6
2018-May-07 15:00N 33°40' E 135°02'3 5.9
2018-May-07 14:30N 33°39' E 135°05'3 5.8
2018-May-07 14:00N 33°37' E 135°08'3 5.6
2018-May-07 13:26N 33°35' E 135°11'3 7.2
2018-May-07 12:58N 33°32' E 135°13'189 5.9
2018-May-06 04:57N 33°38' E 138°60'2 3.7
2018-May-06 04:24N 33°37' E 139°02'2 3.8
2018-May-06 04:00N 33°35' E 139°01'2 3.8
2018-May-06 03:30N 33°34' E 139°00'2 3.9
2018-May-06 03:01N 33°32' E 138°59'2 3.9
2018-May-06 02:31N 33°30' E 138°58'2 3.9
2018-May-06 02:00N 33°28' E 138°57'2 3.9
2018-May-06 01:24N 33°26' E 138°56'2 3.9
2018-May-06 01:00N 33°25' E 138°55'2 3.8
2018-May-06 00:23N 33°23' E 138°55'1 3.8
2018-May-06 00:00N 33°21' E 138°54'2 3.6
2018-May-05 23:30N 33°19' E 138°54'2 3.6
2018-May-05 23:00N 33°18' E 138°54'30 2.8
2018-May-05 12:12N 32°48' E 138°50'1 2.3
2018-May-05 11:39N 32°47' E 138°49'  
Track history (hours):
 
Tides and Currents Weather Stations Pressure Air Temp Water Temp Dewpoint Dewpoint Depression Visibility Wind Speed Wind Dir Waves Ship Positions

Sakaide Maru

Last reported at 2018-May-13 23:08 UTC. Time now 2018-May-23 07:17 UTC.
Position N 34°36' E 140°25'.
Warning: this ship's position is 9 days out of date.

Length 255 m; draft 7.4 m.

Type: Ship. MMSI: 354898000.

Date/timePositionNaut miles runAvg speedWind from/ knotsBaromVisibWave heightAir tempDewpointWater temp
2018-May-13 23:08N 34°36' E 140°25'1615.1
2018-May-13 22:04N 34°27' E 140°09'115.0
2018-May-13 21:59N 34°26' E 140°08'1514.1
2018-May-13 20:54N 34°18' E 139°52'815.2
2018-May-13 20:23N 34°15' E 139°43'2114.7
2018-May-13 18:58N 34°08' E 139°19'36512.4
2018-May-12 13:30N 32°59' E 132°09'713.8
2018-May-12 13:00N 33°05' E 132°06'713.7
2018-May-12 12:29N 33°11' E 132°02'510.8
2018-May-12 12:00N 33°15' E 131°58'4 8.5
2018-May-12 11:30N 33°20' E 131°58'611.8
2018-May-12 11:01N 33°25' E 132°02'913.0
2018-May-12 10:21N 33°31' E 132°09'512.8
2018-May-12 09:57N 33°34' E 132°13'612.5
2018-May-12 09:30N 33°38' E 132°18'612.2
2018-May-12 09:00N 33°42' E 132°23'612.8
2018-May-12 08:31N 33°47' E 132°29'712.9
2018-May-12 07:59N 33°52' E 132°34'612.9
2018-May-12 07:30N 33°56' E 132°40'612.7
2018-May-12 07:00N 34°01' E 132°45'713.5
2018-May-12 06:30N 34°06' E 132°50'712.9
2018-May-12 05:59N 34°10' E 132°57'44 8.9
2018-May-12 01:02N 34°23' E 133°48'  
2018-May-08 03:25N 34°27' E 134°04'512.9
2018-May-08 02:59N 34°26' E 134°10'612.0
2018-May-08 02:30N 34°25' E 134°17'611.8
2018-May-08 02:00N 34°26' E 134°24'612.3
2018-May-08 01:30N 34°28' E 134°31'612.4
2018-May-08 01:00N 34°30' E 134°38'612.4
2018-May-08 00:30N 34°32' E 134°45'611.9
2018-May-08 00:00N 34°35' E 134°52'510.8
2018-May-07 23:30N 34°37' E 134°58'4 9.1
2018-May-07 23:00N 34°36' E 135°03'4 8.9
2018-May-07 22:30N 34°34' E 135°08'510.5
2018-May-07 22:00N 34°29' E 135°06'611.7
2018-May-07 21:30N 34°23' E 135°03'611.5
2018-May-07 21:00N 34°18' E 134°60'611.5
2018-May-07 20:30N 34°13' E 134°60'4 7.8
2018-May-07 20:00N 34°09' E 134°59'2 4.8
2018-May-07 19:30N 34°06' E 134°59'3 5.3
2018-May-07 19:00N 34°04' E 134°59'3 5.8
2018-May-07 18:30N 34°01' E 134°58'3 6.5
2018-May-07 18:00N 33°58' E 134°59'3 6.1
2018-May-07 17:30N 33°55' E 134°58'3 6.7
2018-May-07 17:00N 33°51' E 134°58'3 6.1
2018-May-07 16:30N 33°48' E 134°58'3 6.1
2018-May-07 16:00N 33°45' E 134°58'3 6.7
2018-May-07 15:30N 33°42' E 134°59'3 5.6
2018-May-07 15:00N 33°40' E 135°02'3 5.9
2018-May-07 14:30N 33°39' E 135°05'3 5.8
2018-May-07 14:00N 33°37' E 135°08'3 5.6
2018-May-07 13:26N 33°35' E 135°11'3 7.2
2018-May-07 12:58N 33°32' E 135°13'189 5.9
2018-May-06 04:57N 33°38' E 138°60'2 3.7
2018-May-06 04:24N 33°37' E 139°02'2 3.8
2018-May-06 04:00N 33°35' E 139°01'2 3.8
2018-May-06 03:30N 33°34' E 139°00'2 3.9
2018-May-06 03:01N 33°32' E 138°59'2 3.9
2018-May-06 02:31N 33°30' E 138°58'2 3.9
2018-May-06 02:00N 33°28' E 138°57'2 3.9
2018-May-06 01:24N 33°26' E 138°56'2 3.9
2018-May-06 01:00N 33°25' E 138°55'2 3.8
2018-May-06 00:23N 33°23' E 138°55'1 3.8
2018-May-06 00:00N 33°21' E 138°54'2 3.6
2018-May-05 23:30N 33°19' E 138°54'2 3.6
2018-May-05 23:00N 33°18' E 138°54'30 2.8
2018-May-05 12:12N 32°48' E 138°50'1 2.3
2018-May-05 11:39N 32°47' E 138°49'  

Dump ship's entire track history